Terminal Aerodrome Forecast
Issued by NWS

Home | Current Version | Previous Version | Text Only | Print | Product List | Glossary On
Versions: 1 2 3 4 5 6 7 8 9 10 11 12 13 14 15 16 17 18 19 20 21
000
FTUS43 KGRB 041720
TAFCWA
TAF
KCWA 041720Z 0418/0518 13005KT P6SM BKN015
     FM042000 07006KT P6SM SCT040 SCT200
     FM050600 15003KT 3SM BR SCT004 BKN015
      TEMPO 0508/0512 1SM BR BKN004
     FM051500 16005KT P6SM SCT040=

USA.gov is the U.S. government's official web portal to all federal, state and local government web resources and services.